createdAt,value
2022-08-27T00:01:39.720Z,15.20
2022-08-27T00:04:32.477Z,16.40
2022-08-27T00:07:24.605Z,17.50
2022-08-27T00:10:20.825Z,16.80
2022-08-27T00:13:12.969Z,17.30
2022-08-27T00:16:06.927Z,18.40
2022-08-27T00:18:59.555Z,14.30
2022-08-27T00:21:44.744Z,16.40
2022-08-27T00:24:38.374Z,16.40
2022-08-27T00:27:34.201Z,15.80
2022-08-27T00:30:26.798Z,15.10
2022-08-27T00:33:18.846Z,15.30
2022-08-27T00:36:12.083Z,15.90
2022-08-27T00:39:04.264Z,16.90
2022-08-27T00:41:56.326Z,16.90
2022-08-27T00:44:48.350Z,16.20
2022-08-27T00:47:46.497Z,15.70
2022-08-27T00:50:43.908Z,15.10
2022-08-27T00:53:36.693Z,15.10
2022-08-27T00:56:33.605Z,14.20
2022-08-27T00:59:29.418Z,13.80
2022-08-27T01:02:21.686Z,15.50
2022-08-27T01:05:17.086Z,17.00
2022-08-27T01:08:13.016Z,17.80
2022-08-27T01:11:05.685Z,15.20
2022-08-27T01:13:59.859Z,15.50
2022-08-27T01:16:57.153Z,16.00
2022-08-27T01:19:45.369Z,16.50
2022-08-27T01:22:45.541Z,13.70
2022-08-27T01:25:32.028Z,17.20
2022-08-27T01:28:26.824Z,15.70
2022-08-27T01:31:24.543Z,14.60
2022-08-27T01:34:16.962Z,13.30
2022-08-27T01:37:09.707Z,17.80
2022-08-27T01:40:02.306Z,15.70
2022-08-27T01:42:56.835Z,15.00
2022-08-27T01:45:51.744Z,19.50
2022-08-27T01:48:43.812Z,17.20
2022-08-27T01:51:37.238Z,16.10
2022-08-27T01:54:29.674Z,15.60
2022-08-27T01:57:25.852Z,16.50
2022-08-27T02:00:22.963Z,15.10
2022-08-27T02:03:17.961Z,15.20
2022-08-27T02:06:12.700Z,16.90
2022-08-27T02:09:04.902Z,15.60
2022-08-27T02:11:57.046Z,16.80
2022-08-27T02:14:51.938Z,15.20
2022-08-27T02:17:44.691Z,16.20
2022-08-27T02:20:37.594Z,15.60
2022-08-27T02:23:29.643Z,15.10
2022-08-27T02:26:21.887Z,17.00
2022-08-27T02:29:15.889Z,15.90
2022-08-27T02:32:17.702Z,15.30
2022-08-27T02:35:18.101Z,17.00
2022-08-27T02:38:10.925Z,18.40
2022-08-27T02:41:03.030Z,17.50
2022-08-27T02:43:45.517Z,16.50
2022-08-27T02:46:38.903Z,17.40
2022-08-27T02:49:31.284Z,17.00
2022-08-27T02:52:27.197Z,15.40
2022-08-27T02:55:19.419Z,17.00
2022-08-27T02:58:12.949Z,19.60
2022-08-27T03:01:06.050Z,15.40
2022-08-27T03:04:03.628Z,18.30
2022-08-27T03:06:55.717Z,16.10
2022-08-27T03:09:47.958Z,16.10
2022-08-27T03:12:40.094Z,14.70
2022-08-27T03:15:32.208Z,14.90
2022-08-27T03:18:24.287Z,14.40
2022-08-27T03:21:21.760Z,18.90
2022-08-27T03:24:09.272Z,16.90
2022-08-27T03:27:07.071Z,20.40
2022-08-27T03:30:03.737Z,18.30
2022-08-27T03:32:56.245Z,17.60
2022-08-27T03:35:51.892Z,16.50
2022-08-27T03:38:44.236Z,15.70
2022-08-27T03:41:45.537Z,15.00
2022-08-27T03:44:47.557Z,15.90
2022-08-27T03:47:40.365Z,17.90
2022-08-27T03:50:32.675Z,16.70
2022-08-27T03:53:24.973Z,14.70
2022-08-27T03:56:17.275Z,15.20
2022-08-27T03:59:09.997Z,13.90
2022-08-27T04:02:02.536Z,16.90
2022-08-27T04:04:54.788Z,17.00
2022-08-27T04:07:47.132Z,16.70
2022-08-27T04:10:41.969Z,16.90
2022-08-27T04:13:34.041Z,13.80
2022-08-27T04:16:27.356Z,13.40
2022-08-27T04:19:09.871Z,13.10
2022-08-27T04:22:07.537Z,15.10
2022-08-27T04:24:59.593Z,15.60
2022-08-27T04:27:52.696Z,16.30
2022-08-27T04:30:47.950Z,15.40
2022-08-27T04:33:40.128Z,15.50
2022-08-27T04:36:32.385Z,15.10
2022-08-27T04:39:24.912Z,17.10
2022-08-27T04:42:19.677Z,16.40
2022-08-27T04:45:13.062Z,19.30
2022-08-27T04:48:05.523Z,17.80
2022-08-27T04:50:57.831Z,14.90
2022-08-27T04:53:51.104Z,20.40
2022-08-27T04:56:43.433Z,19.10
2022-08-27T04:59:36.242Z,22.10
2022-08-27T05:02:27.044Z,21.50
2022-08-27T05:05:19.217Z,19.80
2022-08-27T05:08:04.900Z,20.40
2022-08-27T05:11:00.608Z,20.10
2022-08-27T05:13:52.993Z,19.90
2022-08-27T05:16:46.989Z,19.40
2022-08-27T05:19:39.191Z,20.30
2022-08-27T05:22:22.038Z,19.90
2022-08-27T05:25:15.356Z,21.90
2022-08-27T05:28:07.567Z,19.80
2022-08-27T05:31:08.963Z,19.10
2022-08-27T05:34:10.317Z,19.30
2022-08-27T05:37:08.659Z,18.80
2022-08-27T05:40:00.964Z,19.90
2022-08-27T05:42:53.016Z,20.40
2022-08-27T05:45:47.106Z,18.30
2022-08-27T05:48:19.234Z,18.70
2022-08-27T05:51:13.949Z,16.50
2022-08-27T05:53:50.037Z,18.20
2022-08-27T05:56:42.753Z,13.60
2022-08-27T05:59:51.027Z,14.00
2022-08-27T06:02:44.269Z,14.80
2022-08-27T06:05:37.324Z,14.30
2022-08-27T06:08:29.410Z,19.30
2022-08-27T06:11:22.006Z,14.00
2022-08-27T06:14:14.233Z,16.10
2022-08-27T06:17:06.638Z,13.20
2022-08-27T06:19:58.944Z,16.30
2022-08-27T06:22:51.072Z,15.80
2022-08-27T06:25:46.180Z,16.40
2022-08-27T06:28:39.748Z,15.50
2022-08-27T06:31:31.993Z,17.00
2022-08-27T06:34:24.144Z,14.70
2022-08-27T06:37:16.187Z,17.20
2022-08-27T06:40:10.909Z,22.00
2022-08-27T06:43:03.115Z,13.70
2022-08-27T06:45:55.590Z,17.30
2022-08-27T06:48:48.507Z,17.30
2022-08-27T06:51:36.255Z,17.50
2022-08-27T06:54:28.323Z,16.10
2022-08-27T06:57:20.384Z,15.00
2022-08-27T07:00:13.930Z,18.10
2022-08-27T07:03:06.824Z,14.80
2022-08-27T07:06:07.722Z,13.40
2022-08-27T07:09:00.361Z,15.60
2022-08-27T07:11:52.406Z,13.80
2022-08-27T07:14:44.543Z,16.30
2022-08-27T07:17:36.604Z,15.60
2022-08-27T07:20:29.469Z,15.10
2022-08-27T07:23:21.730Z,17.90
2022-08-27T07:26:15.192Z,15.80
2022-08-27T07:29:08.373Z,15.40
2022-08-27T07:32:00.475Z,16.00
2022-08-27T07:34:52.566Z,16.30
2022-08-27T07:37:45.097Z,16.00
2022-08-27T07:40:37.440Z,15.60
2022-08-27T07:43:48.707Z,19.00
2022-08-27T07:46:47.001Z,16.40
2022-08-27T07:49:39.928Z,17.40
2022-08-27T07:52:31.970Z,20.70
2022-08-27T07:55:24.047Z,18.20
2022-08-27T07:58:18.569Z,20.30
2022-08-27T08:01:12.120Z,20.70
2022-08-27T08:04:04.895Z,19.00
2022-08-27T08:06:57.599Z,17.70
2022-08-27T08:09:49.985Z,18.40
2022-08-27T08:12:42.890Z,15.40
2022-08-27T08:15:35.775Z,22.30
2022-08-27T08:18:28.951Z,22.70
2022-08-27T08:21:21.604Z,28.80
2022-08-27T08:24:13.707Z,19.60
2022-08-27T08:27:07.711Z,20.90
2022-08-27T08:30:00.190Z,19.80
2022-08-27T08:32:52.569Z,22.40
2022-08-27T08:35:44.648Z,18.60
2022-08-27T08:38:38.100Z,27.00
2022-08-27T08:41:39.049Z,23.80
2022-08-27T08:44:39.548Z,22.20
2022-08-27T08:47:26.461Z,24.80
2022-08-27T08:50:19.966Z,23.70
2022-08-27T08:53:21.043Z,22.40
2022-08-27T08:56:19.678Z,22.80
2022-08-27T08:59:16.621Z,23.60
2022-08-27T09:02:13.445Z,23.40
2022-08-27T09:05:08.286Z,21.90
2022-08-27T09:08:33.122Z,22.20
2022-08-27T09:11:26.786Z,20.50
2022-08-27T09:17:23.969Z,25.10
2022-08-27T09:20:21.584Z,19.80
2022-08-27T09:23:25.354Z,19.30
2022-08-27T09:26:26.297Z,20.40
2022-08-27T09:29:20.959Z,22.70
2022-08-27T09:32:15.140Z,19.10
2022-08-27T09:34:50.915Z,25.00
2022-08-27T09:37:46.603Z,15.60
2022-08-27T09:40:44.599Z,24.50
2022-08-27T09:43:38.939Z,18.40
2022-08-27T09:46:27.053Z,19.20
2022-08-27T09:49:20.011Z,20.50
2022-08-27T09:52:02.960Z,18.70
2022-08-27T09:54:56.680Z,26.40
2022-08-27T09:57:48.785Z,22.30
2022-08-27T10:00:39.863Z,19.90
2022-08-27T10:03:16.763Z,20.10
2022-08-27T10:06:11.014Z,22.40
2022-08-27T10:09:09.779Z,15.90
2022-08-27T10:12:11.469Z,16.10
2022-08-27T10:15:05.373Z,20.20
2022-08-27T10:18:07.385Z,17.40
2022-08-27T10:21:11.196Z,18.20
2022-08-27T10:24:22.708Z,22.20
2022-08-27T10:27:15.152Z,20.20
2022-08-27T10:30:13.195Z,22.30
2022-08-27T10:36:02.066Z,19.80
2022-08-27T10:38:53.641Z,24.70
2022-08-27T10:41:53.099Z,22.20
2022-08-27T10:45:01.035Z,19.30
2022-08-27T10:48:05.893Z,22.10
2022-08-27T10:51:08.357Z,18.10
2022-08-27T10:54:06.008Z,22.40
2022-08-27T10:57:26.548Z,18.60
2022-08-27T11:00:26.480Z,15.90
2022-08-27T11:03:12.304Z,21.70
2022-08-27T11:06:00.249Z,18.40
2022-08-27T11:08:40.837Z,17.40
2022-08-27T11:14:49.134Z,17.70
2022-08-27T11:17:46.962Z,13.40
2022-08-27T11:20:46.629Z,19.90
2022-08-27T11:23:42.843Z,13.20
2022-08-27T11:26:38.617Z,14.70
2022-08-27T11:29:37.664Z,24.00
2022-08-27T11:32:37.425Z,18.60
2022-08-27T11:35:37.072Z,16.00
2022-08-27T11:38:45.211Z,11.50
2022-08-27T11:41:53.890Z,17.00
2022-08-27T11:44:48.760Z,18.40
2022-08-27T11:47:41.219Z,19.00
2022-08-27T11:50:27.162Z,16.70
2022-08-27T11:53:28.649Z,20.30
2022-08-27T11:56:37.141Z,13.90
2022-08-27T11:59:35.331Z,17.30
2022-08-27T12:02:29.601Z,15.20
2022-08-27T12:05:44.662Z,19.80
2022-08-27T12:08:38.159Z,19.00
2022-08-27T12:11:32.101Z,16.00
2022-08-27T12:14:25.803Z,17.20
2022-08-27T12:17:25.237Z,14.50
2022-08-27T12:20:25.321Z,16.50
2022-08-27T12:23:44.035Z,21.00
2022-08-27T12:26:39.311Z,19.60
2022-08-27T12:29:31.400Z,17.90
2022-08-27T12:32:30.358Z,20.80
2022-08-27T12:35:24.552Z,14.10
2022-08-27T12:38:20.553Z,14.40
2022-08-27T12:41:13.544Z,22.40
2022-08-27T12:44:10.736Z,13.50
2022-08-27T12:46:50.274Z,16.60
2022-08-27T12:49:42.697Z,19.20
2022-08-27T12:53:03.223Z,12.50
2022-08-27T12:56:07.019Z,16.40
2022-08-27T12:59:06.105Z,16.00
2022-08-27T13:02:10.946Z,14.40
2022-08-27T13:04:57.112Z,16.20
2022-08-27T13:07:51.238Z,17.80
2022-08-27T13:10:43.359Z,20.90
2022-08-27T13:13:37.169Z,18.20
2022-08-27T13:16:30.355Z,15.80
2022-08-27T13:19:26.162Z,17.40
2022-08-27T13:22:24.494Z,14.20
2022-08-27T13:25:27.602Z,15.20
2022-08-27T13:28:23.837Z,16.60
2022-08-27T13:31:02.772Z,19.20
2022-08-27T13:33:58.733Z,16.10
2022-08-27T13:36:38.144Z,13.90
2022-08-27T13:39:30.110Z,14.80
2022-08-27T13:42:22.570Z,18.40
2022-08-27T13:45:08.496Z,13.30
2022-08-27T13:47:51.047Z,17.20
2022-08-27T13:50:51.854Z,15.70
2022-08-27T13:53:43.912Z,17.40
2022-08-27T13:56:38.884Z,17.50
2022-08-27T13:59:27.581Z,18.00
2022-08-27T14:02:29.203Z,18.70
2022-08-27T14:05:34.033Z,14.00
2022-08-27T14:08:29.351Z,16.00
2022-08-27T14:11:27.516Z,16.60
2022-08-27T14:14:20.335Z,15.90
2022-08-27T14:17:29.471Z,13.80
2022-08-27T14:20:22.902Z,16.70
2022-08-27T14:23:15.025Z,16.50
2022-08-27T14:26:07.354Z,12.20
2022-08-27T14:28:59.633Z,14.10
2022-08-27T14:31:45.279Z,18.90
2022-08-27T14:34:37.614Z,14.60
2022-08-27T14:37:14.767Z,17.30
2022-08-27T14:39:59.665Z,16.30
2022-08-27T14:42:46.346Z,15.00
2022-08-27T14:45:40.416Z,16.10
2022-08-27T14:48:34.963Z,12.60
2022-08-27T14:51:27.848Z,13.70
2022-08-27T14:54:14.307Z,16.00
2022-08-27T14:57:08.155Z,14.50
2022-08-27T15:00:02.643Z,16.40
2022-08-27T15:02:56.152Z,16.50
2022-08-27T15:05:48.242Z,16.50
2022-08-27T15:08:41.284Z,13.30
2022-08-27T15:11:39.861Z,16.00
2022-08-27T15:14:34.364Z,18.00
2022-08-27T15:17:35.491Z,13.10
2022-08-27T15:20:27.655Z,19.70
2022-08-27T15:23:20.030Z,15.50
2022-08-27T15:26:12.071Z,11.00
2022-08-27T15:29:06.792Z,15.40
2022-08-27T15:31:51.767Z,22.00
2022-08-27T15:34:43.806Z,14.40
2022-08-27T15:37:35.954Z,18.00
2022-08-27T15:40:30.792Z,15.80
2022-08-27T15:43:23.260Z,13.00
2022-08-27T15:46:15.490Z,13.30
2022-08-27T15:49:10.496Z,14.40
2022-08-27T15:52:02.839Z,15.50
2022-08-27T15:54:55.518Z,14.90
2022-08-27T15:57:47.822Z,11.90
2022-08-27T16:00:42.928Z,14.40
2022-08-27T16:03:36.228Z,14.70
2022-08-27T16:06:29.012Z,14.30
2022-08-27T16:09:21.123Z,14.50
2022-08-27T16:12:13.133Z,19.00
2022-08-27T16:15:19.475Z,15.30
2022-08-27T16:18:13.264Z,23.70
2022-08-27T16:21:06.568Z,17.90
2022-08-27T16:23:58.711Z,16.70
2022-08-27T16:26:50.814Z,15.40
2022-08-27T16:29:42.894Z,16.10
2022-08-27T16:32:25.107Z,16.70
2022-08-27T16:35:19.470Z,17.60
2022-08-27T16:38:12.382Z,14.80
2022-08-27T16:41:05.208Z,16.10
2022-08-27T16:43:58.967Z,16.60
2022-08-27T16:46:50.945Z,18.90
2022-08-27T16:50:11.876Z,15.50
2022-08-27T16:53:22.113Z,17.70
2022-08-27T16:56:15.480Z,21.90
2022-08-27T16:59:13.135Z,18.70
2022-08-27T17:02:03.702Z,19.60
2022-08-27T17:05:12.310Z,16.80
2022-08-27T17:08:11.475Z,22.80
2022-08-27T17:11:04.207Z,21.70
2022-08-27T17:13:59.676Z,23.00
2022-08-27T17:16:43.444Z,30.40
2022-08-27T17:19:37.048Z,25.00
2022-08-27T17:22:29.201Z,25.80
2022-08-27T17:25:13.974Z,28.00
2022-08-27T17:28:06.460Z,38.10
2022-08-27T17:30:48.629Z,36.20
2022-08-27T17:33:42.622Z,59.60
2022-08-27T17:36:34.952Z,50.00
2022-08-27T17:39:26.987Z,35.40
2022-08-27T17:42:10.444Z,42.90
2022-08-27T17:45:02.462Z,34.80
2022-08-27T17:47:54.470Z,31.90
2022-08-27T17:50:46.498Z,34.50
2022-08-27T17:53:49.634Z,24.20
2022-08-27T17:56:43.984Z,33.30
2022-08-27T17:59:36.522Z,26.80
2022-08-27T18:02:34.758Z,23.40
2022-08-27T18:05:22.792Z,22.50
2022-08-27T18:08:15.270Z,20.30
2022-08-27T18:11:07.979Z,18.50
2022-08-27T18:14:04.692Z,24.80
2022-08-27T18:16:58.106Z,22.30
2022-08-27T18:19:44.945Z,20.30
2022-08-27T18:22:34.976Z,20.70
2022-08-27T18:25:36.185Z,18.50
2022-08-27T18:28:29.007Z,20.70
2022-08-27T18:31:14.476Z,21.40
2022-08-27T18:34:06.587Z,22.30
2022-08-27T18:36:58.665Z,23.70
2022-08-27T18:39:50.829Z,25.70
2022-08-27T18:42:43.616Z,24.70
2022-08-27T18:45:28.951Z,28.00
2022-08-27T18:48:23.386Z,20.40
2022-08-27T18:51:07.896Z,24.90
2022-08-27T18:54:00.844Z,21.50
2022-08-27T18:56:53.509Z,25.70
2022-08-27T18:59:45.828Z,28.40
2022-08-27T19:02:30.389Z,30.00
2022-08-27T19:05:17.114Z,23.50
2022-08-27T19:07:51.905Z,25.90
2022-08-27T19:10:44.036Z,24.00
2022-08-27T19:13:36.419Z,27.80
2022-08-27T19:16:42.449Z,27.80
2022-08-27T19:19:34.695Z,30.30
2022-08-27T19:22:27.073Z,26.70
2022-08-27T19:25:19.721Z,26.80
2022-08-27T19:28:04.714Z,25.70
2022-08-27T19:30:56.982Z,23.50
2022-08-27T19:33:42.149Z,26.90
2022-08-27T19:36:28.192Z,23.00
2022-08-27T19:39:20.324Z,29.50
2022-08-27T19:42:13.088Z,25.30
2022-08-27T19:45:05.505Z,26.00
2022-08-27T19:47:57.612Z,20.60
2022-08-27T19:50:50.823Z,25.40
2022-08-27T19:53:43.332Z,32.00
2022-08-27T19:56:37.245Z,28.10
2022-08-27T19:59:29.517Z,24.60
2022-08-27T20:02:21.527Z,23.10
2022-08-27T20:05:18.250Z,23.40
2022-08-27T20:08:11.027Z,21.40
2022-08-27T20:11:05.051Z,25.80
2022-08-27T20:13:47.914Z,24.10
2022-08-27T20:16:43.293Z,20.50
2022-08-27T20:19:35.589Z,20.20
2022-08-27T20:22:27.609Z,18.00
2022-08-27T20:25:20.082Z,21.60
2022-08-27T20:28:37.330Z,27.10
2022-08-27T20:31:24.171Z,22.40
2022-08-27T20:34:16.319Z,21.20
2022-08-27T20:37:09.146Z,23.30
2022-08-27T20:40:01.261Z,26.30
2022-08-27T20:42:53.414Z,20.10
2022-08-27T20:45:45.754Z,23.30
2022-08-27T20:48:37.939Z,20.80
2022-08-27T20:51:30.152Z,19.90
2022-08-27T20:54:42.407Z,20.00
2022-08-27T20:57:34.433Z,20.20
2022-08-27T21:00:26.568Z,19.30
2022-08-27T21:03:20.745Z,22.70
2022-08-27T21:06:13.009Z,18.70
2022-08-27T21:09:03.668Z,20.20
2022-08-27T21:11:58.522Z,21.60
2022-08-27T21:14:54.912Z,22.50
2022-08-27T21:20:39.603Z,22.60
2022-08-27T21:23:32.053Z,20.90
2022-08-27T21:26:15.056Z,20.80
2022-08-27T21:29:05.673Z,19.10
2022-08-27T21:31:57.833Z,22.40
2022-08-27T21:34:49.912Z,18.20
2022-08-27T21:37:43.920Z,20.00
2022-08-27T21:40:36.093Z,25.20
2022-08-27T21:43:28.464Z,22.60
2022-08-27T21:46:21.441Z,20.90
2022-08-27T21:49:13.549Z,22.40
2022-08-27T21:52:08.279Z,19.90
2022-08-27T21:55:00.350Z,19.60
2022-08-27T21:57:52.427Z,21.10
2022-08-27T22:00:47.674Z,19.20
2022-08-27T22:03:46.931Z,25.60
2022-08-27T22:06:39.381Z,22.80
2022-08-27T22:09:34.293Z,25.10
2022-08-27T22:12:26.599Z,28.70
2022-08-27T22:15:18.636Z,22.30
2022-08-27T22:18:11.450Z,21.30
2022-08-27T22:21:04.184Z,24.40
2022-08-27T22:23:56.494Z,25.30
2022-08-27T22:26:48.694Z,25.40
2022-08-27T22:29:40.682Z,23.80
2022-08-27T22:32:32.895Z,19.30
2022-08-27T22:35:26.352Z,20.80
2022-08-27T22:38:20.919Z,35.30
2022-08-27T22:41:13.761Z,23.60
2022-08-27T22:44:06.341Z,19.50
2022-08-27T22:46:59.114Z,22.50
2022-08-27T22:49:52.741Z,21.10
2022-08-27T22:52:45.337Z,19.80
2022-08-27T22:55:37.689Z,19.00
2022-08-27T22:58:29.662Z,22.80
2022-08-27T23:01:19.020Z,22.10
2022-08-27T23:04:11.373Z,22.30
2022-08-27T23:07:05.259Z,24.70
2022-08-27T23:09:57.294Z,23.20
2022-08-27T23:12:49.463Z,22.60
2022-08-27T23:15:42.271Z,23.00
2022-08-27T23:18:34.475Z,21.50
2022-08-27T23:21:26.580Z,22.80
2022-08-27T23:24:19.012Z,23.50
2022-08-27T23:27:28.201Z,20.00
2022-08-27T23:30:20.611Z,20.80
2022-08-27T23:33:15.886Z,20.50
2022-08-27T23:36:10.058Z,21.60
2022-08-27T23:39:02.250Z,19.00
2022-08-27T23:41:43.958Z,21.10
2022-08-27T23:44:36.206Z,20.20
2022-08-27T23:47:28.243Z,18.90
2022-08-27T23:50:26.361Z,20.80
2022-08-27T23:53:27.583Z,22.50
2022-08-27T23:56:19.829Z,23.60
2022-08-27T23:59:11.868Z,21.70
